Time;durP1;ratioP1;P1;durP2;ratioP2;P2;SDS_P1;SDS_P2;PMS_P1;PMS_P2;Temp;Humidity;BMP_temperature;BMP_pressure;BME280_temperature;BME280_humidity;BME280_pressure;Samples;Min_cycle;Max_cycle;Signal;HPM_P1;HPM_P2
2024/01/19 00:08:12;;;;;;;26.23;19.98;;;;;;;20.64;50.59;98682.09;41218201;28;20054;-71
2024/01/19 00:28:12;;;;;;;24.17;17.80;;;;;;;20.61;50.71;98711.38;41368076;28;20494;-72
2024/01/19 00:48:13;;;;;;;21.50;16.77;;;;;;;20.57;50.38;98800.25;41361297;28;20112;-72
2024/01/19 01:08:14;;;;;;;20.90;15.40;;;;;;;20.52;50.12;98805.16;41392908;28;20057;-71
2024/01/19 01:28:15;;;;;;;17.50;13.80;;;;;;;20.47;49.75;98841.59;41374678;28;20052;-72
2024/01/19 01:48:20;;;;;;;17.23;13.00;;;;;;;20.39;49.75;98883.59;41394364;28;20140;-71
2024/01/19 02:08:21;;;;;;;16.67;12.68;;;;;;;20.37;49.53;98946.81;41376775;28;20042;-69
2024/01/19 02:28:21;;;;;;;15.00;11.60;;;;;;;20.29;49.18;98950.19;41363823;28;20525;-71
2024/01/19 02:48:23;;;;;;;13.88;10.80;;;;;;;20.30;48.63;99019.38;41359601;28;20061;-69
2024/01/19 03:08:23;;;;;;;13.18;10.38;;;;;;;20.24;48.73;99062.84;41373137;28;20451;-71
2024/01/19 03:28:25;;;;;;;12.02;9.48;;;;;;;20.20;49.23;99082.50;41358627;28;20058;-71
2024/01/19 03:48:25;;;;;;;12.07;9.25;;;;;;;20.15;48.69;99092.59;41373571;28;20050;-71
2024/01/19 04:08:27;;;;;;;10.40;8.52;;;;;;;20.13;48.69;99124.28;41373075;28;20401;-71
2024/01/19 04:28:28;;;;;;;8.57;7.53;;;;;;;20.11;48.37;99144.63;41228828;28;20046;-71
2024/01/19 04:48:30;;;;;;;10.38;7.82;;;;;;;20.17;48.16;99176.59;41243065;28;20066;-71
2024/01/19 05:08:30;;;;;;;8.68;6.97;;;;;;;20.14;48.51;99202.16;41241444;28;20057;-71
2024/01/19 05:28:33;;;;;;;22.15;7.28;;;;;;;20.78;46.52;99252.41;41303303;28;20050;-71
2024/01/19 05:48:34;;;;;;;8.85;6.13;;;;;;;21.13;47.53;99271.13;41383164;28;20050;-78
2024/01/19 06:08:34;;;;;;;20.90;8.32;;;;;;;21.24;46.99;99318.31;41404971;28;20044;-76
2024/01/19 06:28:35;;;;;;;19.88;7.80;;;;;;;21.13;45.14;99351.88;41385483;28;20048;-78
2024/01/19 06:48:37;;;;;;;18.10;6.35;;;;;;;21.27;42.90;99393.53;41435623;28;20038;-81
2024/01/19 07:08:37;;;;;;;11.50;5.90;;;;;;;21.43;43.38;99440.34;41443099;28;20124;-83
2024/01/19 07:28:37;;;;;;;12.15;6.25;;;;;;;21.43;43.00;99477.19;41431127;28;20054;-79
2024/01/19 07:48:38;;;;;;;7.10;4.80;;;;;;;21.45;44.09;99485.81;41441302;28;20250;-84
2024/01/19 08:08:39;;;;;;;8.90;4.25;;;;;;;21.54;43.57;99519.16;41506744;28;20053;-83
2024/01/19 08:28:39;;;;;;;8.15;4.65;;;;;;;21.49;44.32;99508.25;41493107;28;20038;-85
2024/01/19 08:48:40;;;;;;;7.15;4.40;;;;;;;21.57;43.92;99590.06;41539419;28;20050;-84
2024/01/19 09:08:42;;;;;;;4.55;3.58;;;;;;;21.52;43.79;99626.50;41558541;28;20110;-79
2024/01/19 09:28:49;;;;;;;5.95;3.58;;;;;;;21.43;43.30;99651.88;41493262;28;20056;-81
2024/01/19 09:49:07;;;;;;;;;;;;;;;21.58;44.07;99685.72;41486833;28;20043;-86
2024/01/19 10:09:08;;;;;;;4.78;3.60;;;;;;;21.56;45.20;99706.94;41464540;28;19932;-84
2024/01/19 10:29:14;;;;;;;6.28;3.95;;;;;;;21.43;44.74;99717.72;41497732;28;20049;-83
2024/01/19 10:49:18;;;;;;;5.10;3.35;;;;;;;21.31;44.62;99771.44;41446555;28;20053;-84
2024/01/19 11:09:21;;;;;;;5.55;3.60;;;;;;;21.49;44.85;99865.66;41450855;28;20146;-80
2024/01/19 11:29:25;;;;;;;4.15;3.10;;;;;;;21.52;44.55;99907.50;41440829;28;20077;-80
2024/01/19 11:49:37;;;;;;;5.05;3.65;;;;;;;21.55;44.64;99909.91;41423735;28;20077;-80
2024/01/19 12:09:37;;;;;;;4.03;3.40;;;;;;;21.58;44.70;99923.66;41274109;28;20069;-82
2024/01/19 12:29:39;;;;;;;4.93;3.25;;;;;;;21.63;44.55;99967.22;41268234;28;20050;-80
2024/01/19 12:49:40;;;;;;;6.90;3.50;;;;;;;21.48;44.58;99966.72;41326757;28;20045;-83
2024/01/19 13:09:40;;;;;;;9.60;5.75;;;;;;;20.76;39.21;100017.34;41452490;28;20049;-78
2024/01/19 13:29:40;;;;;;;6.00;4.63;;;;;;;21.42;43.16;100071.63;41311139;28;20137;-83
2024/01/19 13:49:41;;;;;;;7.90;4.82;;;;;;;21.26;43.92;100097.56;41302557;28;20043;-80
2024/01/19 14:09:41;;;;;;;15.20;5.22;;;;;;;21.38;42.69;100151.84;41417959;28;20050;-72
2024/01/19 14:29:43;;;;;;;7.63;4.70;;;;;;;21.51;43.92;100182.47;41419129;28;20050;-74
2024/01/19 14:49:50;;;;;;;5.75;4.30;;;;;;;21.22;43.79;100226.00;41386456;28;20057;-75
2024/01/19 15:09:51;;;;;;;12.90;4.47;;;;;;;21.26;44.63;100271.34;41416307;28;20056;-72
2024/01/19 15:29:51;;;;;;;9.35;4.30;;;;;;;21.21;44.75;100305.13;41414866;28;20050;-75
2024/01/19 15:49:52;;;;;;;9.38;4.38;;;;;;;21.33;47.92;100348.09;41388715;28;20512;-69
2024/01/19 16:09:52;;;;;;;5.75;3.90;;;;;;;21.44;49.84;100377.88;41292004;28;20051;-72
2024/01/19 16:29:53;;;;;;;10.27;4.43;;;;;;;19.06;33.51;100424.03;41348197;28;20511;-70
2024/01/19 16:49:53;;;;;;;9.18;3.80;;;;;;;20.87;42.15;100449.88;41396248;28;20042;-76
2024/01/19 17:10:00;;;;;;;4.57;3.45;;;;;;;20.98;43.24;100475.41;41428486;28;20061;-72
2024/01/19 17:30:00;;;;;;;7.95;3.47;;;;;;;21.04;44.81;100503.91;41401698;28;20038;-74
2024/01/19 17:50:00;;;;;;;6.90;3.28;;;;;;;20.98;45.91;100546.47;41372270;28;20049;-70
2024/01/19 18:10:02;;;;;;;6.47;3.40;;;;;;;21.17;46.16;100625.78;41299699;28;20525;-70
2024/01/19 18:30:05;;;;;;;6.68;4.43;;;;;;;21.19;47.40;100668.66;41375075;28;20042;-73
2024/01/19 18:50:06;;;;;;;9.73;6.50;;;;;;;21.12;48.10;100680.59;41400430;28;20080;-72
2024/01/19 19:10:07;;;;;;;9.98;5.80;;;;;;;20.89;46.26;100703.28;41281610;28;20490;-73
2024/01/19 19:30:11;;;;;;;10.43;5.80;;;;;;;20.85;46.82;100730.75;41467611;28;20042;-74
2024/01/19 19:50:11;;;;;;;7.60;5.13;;;;;;;20.71;47.29;100766.75;41436108;28;20045;-73
2024/01/19 20:10:12;;;;;;;6.63;4.70;;;;;;;20.64;47.37;100781.28;41380733;28;20049;-72
2024/01/19 20:30:12;;;;;;;6.78;4.70;;;;;;;20.60;47.01;100841.19;41330252;28;1087296;-71
2024/01/19 20:50:13;;;;;;;8.57;4.57;;;;;;;20.52;45.92;100855.78;41387950;28;20056;-69
2024/01/19 21:10:13;;;;;;;7.15;4.82;;;;;;;20.56;46.85;100873.06;41391968;28;20046;-69
2024/01/19 21:30:14;;;;;;;9.40;4.50;;;;;;;20.45;47.57;100879.88;41418864;28;20129;-70
2024/01/19 21:50:14;;;;;;;5.65;3.90;;;;;;;20.24;48.54;100894.47;41391138;28;20046;-69
2024/01/19 22:10:15;;;;;;;5.03;3.67;;;;;;;20.14;48.71;100917.84;41441841;28;20057;-71
2024/01/19 22:30:19;;;;;;;4.75;3.20;;;;;;;20.13;48.66;100955.63;41413007;28;20538;-70
2024/01/19 22:50:21;;;;;;;4.30;3.17;;;;;;;20.06;48.37;100989.34;41395440;28;20034;-69
2024/01/19 23:10:22;;;;;;;4.53;2.95;;;;;;;20.02;48.60;101018.53;41375649;28;20042;-68
2024/01/19 23:30:22;;;;;;;4.25;2.80;;;;;;;20.00;48.58;101035.25;41374819;28;20379;-70
2024/01/19 23:50:24;;;;;;;3.45;2.30;;;;;;;20.03;48.35;101043.88;41443248;28;20076;-70
